Time;durP1;ratioP1;P1;durP2;ratioP2;P2;SDS_P1;SDS_P2;PMS_P1;PMS_P2;Temp;Humidity;BMP_temperature;BMP_pressure;BME280_temperature;BME280_humidity;BME280_pressure;Samples;Min_cycle;Max_cycle;Signal;HPM_P1;HPM_P2
2023/03/20 00:00:38;;;;;;;3.80;2.30;;;10.20;99.90;;;;;;4927062;29;20063;-75
2023/03/20 00:03:04;;;;;;;4.22;2.22;;;10.20;99.90;;;;;;4918045;29;20056;-74
2023/03/20 00:05:30;;;;;;;3.22;2.15;;;10.10;99.90;;;;;;4926654;29;20042;-75
2023/03/20 00:07:57;;;;;;;3.75;1.80;;;10.10;99.90;;;;;;4926257;29;20157;-75
2023/03/20 00:10:33;;;;;;;3.50;1.90;;;10.10;99.90;;;;;;4926719;29;20016;-76
2023/03/20 00:12:59;;;;;;;2.72;1.77;;;10.20;99.90;;;;;;4925928;29;20040;-75
2023/03/20 00:15:35;;;;;;;3.67;2.00;;;10.20;99.90;;;;;;4926685;29;20059;-76
2023/03/20 00:18:00;;;;;;;3.58;2.30;;;10.20;99.90;;;;;;4926054;29;20032;-75
2023/03/20 00:20:26;;;;;;;3.58;2.05;;;10.20;99.90;;;;;;4926718;29;20035;-75
2023/03/20 00:22:53;;;;;;;3.55;2.53;;;10.20;99.90;;;;;;4926141;29;20263;-74
2023/03/20 00:25:23;;;;;;;4.05;2.38;;;10.20;99.90;;;;;;4926446;29;20312;-75
2023/03/20 00:27:48;;;;;;;5.03;2.97;;;10.20;99.90;;;;;;4926381;29;20155;-74
2023/03/20 00:30:20;;;;;;;3.40;2.50;;;10.20;99.90;;;;;;4925768;29;20028;-75
2023/03/20 00:32:47;;;;;;;3.17;2.33;;;10.10;99.90;;;;;;4940940;28;20028;-74
2023/03/20 00:35:29;;;;;;;4.28;2.42;;;10.10;99.90;;;;;;4926065;29;20016;-75
2023/03/20 00:37:57;;;;;;;3.97;2.60;;;10.00;99.90;;;;;;4925973;29;20048;-75
2023/03/20 00:40:30;;;;;;;4.15;2.70;;;10.00;99.90;;;;;;4926582;29;20317;-75
2023/03/20 00:43:01;;;;;;;3.58;2.33;;;10.00;99.90;;;;;;4925787;29;20044;-75
2023/03/20 00:45:30;;;;;;;5.70;2.83;;;10.00;99.90;;;;;;4926269;29;20063;-74
2023/03/20 00:47:57;;;;;;;4.30;2.40;;;10.00;99.90;;;;;;4925855;29;20039;-74
2023/03/20 00:50:28;;;;;;;5.57;2.72;;;10.00;99.90;;;;;;4926197;29;20460;-74
2023/03/20 00:52:56;;;;;;;4.53;2.47;;;10.00;99.90;;;;;;4925422;29;20079;-75
2023/03/20 00:55:26;;;;;;;4.82;2.60;;;10.00;99.90;;;;;;4925923;29;20251;-74
2023/03/20 00:57:59;;;;;;;5.28;2.85;;;10.00;99.90;;;;;;4925928;29;20048;-75
2023/03/20 01:00:25;;;;;;;5.07;2.53;;;10.00;99.90;;;;;;4926047;29;20036;-74
2023/03/20 06:01:44;;;;;;;4.78;1.05;;;9.70;99.90;;;;;;5777130;23;20063;-76
2023/03/20 06:04:20;;;;;;;6.28;1.70;;;9.70;99.90;;;;;;4949496;28;20060;-75
2023/03/20 06:07:08;;;;;;;12.00;3.90;;;9.80;99.90;;;;;;4960154;28;20026;-76
2023/03/20 06:09:35;;;;;;;12.15;3.75;;;9.70;99.90;;;;;;4976706;28;20032;-75
2023/03/20 06:12:05;;;;;;;12.82;3.53;;;9.80;99.90;;;;;;4981961;28;20069;-75
2023/03/20 06:14:31;;;;;;;7.60;2.42;;;9.80;99.90;;;;;;4966830;28;20031;-75
2023/03/20 06:17:00;;;;;;;6.25;1.38;;;9.90;99.90;;;;;;4981742;28;20035;-74
2023/03/20 06:19:26;;;;;;;5.38;1.58;;;9.90;99.90;;;;;;4966320;28;20105;-74
2023/03/20 06:21:52;;;;;;;5.63;1.20;;;10.00;99.90;;;;;;4966762;28;20035;-75
2023/03/20 06:24:20;;;;;;;4.40;1.10;;;10.00;99.90;;;;;;4965299;29;20143;-76
2023/03/20 06:26:45;;;;;;;4.15;1.60;;;10.00;99.90;;;;;;4965635;28;20216;-75
2023/03/20 06:29:12;;;;;;;5.47;1.48;;;10.10;99.90;;;;;;4948799;28;20099;-75
2023/03/20 06:31:38;;;;;;;4.95;1.88;;;10.10;99.90;;;;;;4965545;29;20300;-73
2023/03/20 06:34:07;;;;;;;6.28;1.80;;;10.20;99.90;;;;;;4965516;29;20027;-74
2023/03/20 06:36:39;;;;;;;5.10;0.90;;;10.30;99.90;;;;;;4962704;29;20270;-75
2023/03/20 06:39:10;;;;;;;2.65;1.02;;;10.30;99.90;;;;;;4965191;29;20046;-75
2023/03/20 06:41:36;;;;;;;8.65;2.67;;;10.40;99.90;;;;;;4965802;28;20098;-75
2023/03/20 06:44:06;;;;;;;6.68;1.98;;;10.50;99.90;;;;;;4965224;29;20058;-74
2023/03/20 06:46:52;;;;;;;3.92;1.50;;;10.50;99.90;;;;;;4965015;28;20106;-74
2023/03/20 06:49:18;;;;;;;5.15;1.30;;;10.50;99.90;;;;;;4964723;29;20031;-74
2023/03/20 06:51:46;;;;;;;4.20;1.40;;;10.60;99.90;;;;;;4964958;28;20027;-75
2023/03/20 06:54:14;;;;;;;4.03;1.40;;;10.70;99.90;;;;;;4964711;29;20058;-74
2023/03/20 06:56:41;;;;;;;6.60;2.03;;;10.90;99.90;;;;;;4964876;29;20035;-74
2023/03/20 06:59:06;;;;;;;6.40;1.88;;;10.90;99.90;;;;;;4964907;29;20286;-74
2023/03/20 07:01:32;;;;;;;4.88;1.70;;;11.00;99.90;;;;;;4961194;28;20050;-74
2023/03/20 07:03:58;;;;;;;3.53;1.17;;;11.20;99.90;;;;;;4964650;28;20065;-75
2023/03/20 07:06:29;;;;;;;3.20;1.23;;;11.30;99.90;;;;;;4964048;28;20031;-74
2023/03/20 07:08:55;;;;;;;3.33;1.25;;;11.50;99.90;;;;;;4965319;28;20031;-75
2023/03/20 07:11:22;;;;;;;2.20;0.80;;;11.80;99.90;;;;;;4955638;29;20035;-75
2023/03/20 07:13:48;;;;;;;3.83;0.80;;;11.60;99.90;;;;;;4947860;29;20042;-75
2023/03/20 07:16:27;;;;;;;1.67;0.40;;;11.80;99.90;;;;;;4947338;29;20117;-75
2023/03/20 07:18:52;;;;;;;1.35;0.50;;;11.90;99.90;;;;;;4963737;28;20280;-74
2023/03/20 07:21:21;;;;;;;2.90;0.40;;;12.00;99.90;;;;;;4963170;28;20035;-74
2023/03/20 07:23:47;;;;;;;3.05;0.73;;;12.20;99.90;;;;;;4962273;28;20078;-74
2023/03/20 07:26:13;;;;;;;1.35;0.50;;;12.50;99.90;;;;;;4963807;28;20029;-74
2023/03/20 07:28:39;;;;;;;1.85;0.50;;;12.20;99.90;;;;;;4947517;29;20042;-74
2023/03/20 07:31:31;;;;;;;1.67;0.52;;;12.00;99.90;;;;;;4963027;28;20024;-74
2023/03/20 07:34:16;;;;;;;2.30;0.60;;;11.90;99.90;;;;;;4954014;28;20051;-74
2023/03/20 07:36:44;;;;;;;1.23;0.63;;;11.70;99.90;;;;;;4963291;28;20046;-74
2023/03/20 07:39:12;;;;;;;2.33;0.88;;;11.40;99.90;;;;;;4963581;28;20019;-74
2023/03/20 07:41:42;;;;;;;1.42;0.60;;;11.40;99.90;;;;;;4963226;28;20033;-74
2023/03/20 07:44:09;;;;;;;2.60;0.60;;;11.50;99.90;;;;;;4947160;29;20367;-74
2023/03/20 07:46:47;;;;;;;3.53;2.25;;;11.60;99.90;;;;;;4947264;28;20098;-73
2023/03/20 07:49:17;;;;;;;2.17;1.30;;;11.80;99.90;;;;;;4963144;28;20041;-73
2023/03/20 07:51:45;;;;;;;1.75;1.00;;;11.90;99.90;;;;;;4963253;28;20047;-74
2023/03/20 07:54:11;;;;;;;1.50;0.73;;;12.10;99.90;;;;;;4963277;28;20053;-73
2023/03/20 07:56:37;;;;;;;2.30;0.55;;;12.30;99.90;;;;;;4963449;28;20039;-73
2023/03/20 07:59:02;;;;;;;1.80;1.00;;;12.20;99.90;;;;;;4964326;28;20102;-74
2023/03/20 08:01:28;;;;;;;1.30;0.60;;;12.20;99.90;;;;;;4963658;28;20031;-74
2023/03/20 08:03:54;;;;;;;3.10;1.00;;;12.30;99.90;;;;;;4963963;28;20035;-74
2023/03/20 08:06:20;;;;;;;2.65;0.90;;;12.50;99.90;;;;;;4963518;28;20039;-74
2023/03/20 08:08:46;;;;;;;1.95;0.90;;;12.50;99.90;;;;;;4964348;28;20122;-73
2023/03/20 08:11:12;;;;;;;3.45;1.48;;;12.60;99.90;;;;;;4963793;28;20048;-73
2023/03/20 08:13:38;;;;;;;2.65;0.80;;;12.90;99.90;;;;;;4963479;28;20151;-75
2023/03/20 08:16:04;;;;;;;3.55;1.45;;;13.00;99.90;;;;;;4963527;28;20126;-74
2023/03/20 08:18:30;;;;;;;3.45;0.80;;;13.30;99.90;;;;;;4962938;28;20232;-74
2023/03/20 08:20:56;;;;;;;3.15;1.13;;;13.30;99.90;;;;;;4963525;28;20035;-75
2023/03/20 08:23:21;;;;;;;2.28;1.10;;;13.00;99.90;;;;;;4962810;28;20368;-74
2023/03/20 08:25:52;;;;;;;2.08;0.90;;;12.90;99.90;;;;;;4963844;28;20050;-74
2023/03/20 08:28:19;;;;;;;3.08;1.40;;;12.80;99.90;;;;;;4963337;28;20066;-75
2023/03/20 08:30:46;;;;;;;2.63;1.02;;;12.70;99.90;;;;;;4963906;28;20065;-74
2023/03/20 08:33:12;;;;;;;2.20;0.60;;;12.60;99.90;;;;;;4962391;28;20034;-74
2023/03/20 08:35:38;;;;;;;3.35;0.70;;;12.60;99.90;;;;;;4963324;28;20051;-75
2023/03/20 08:38:04;;;;;;;1.92;1.00;;;12.90;99.90;;;;;;4963249;28;20102;-74
2023/03/20 08:40:30;;;;;;;1.95;0.68;;;13.10;99.90;;;;;;4962783;28;20042;-73
2023/03/20 08:42:57;;;;;;;2.80;0.80;;;13.40;99.90;;;;;;4959642;28;20027;-75
2023/03/20 08:45:24;;;;;;;1.80;0.60;;;13.60;99.90;;;;;;4960571;28;20035;-75
2023/03/20 08:47:51;;;;;;;4.07;0.57;;;13.70;99.90;;;;;;4963768;28;20042;-75
2023/03/20 08:50:19;;;;;;;1.42;0.50;;;13.80;99.90;;;;;;4963227;28;20047;-78
2023/03/20 08:52:45;;;;;;;2.42;0.77;;;13.70;99.90;;;;;;4946913;28;20019;-73
2023/03/20 08:55:13;;;;;;;2.65;0.75;;;13.70;99.90;;;;;;4957982;28;20089;-75
2023/03/20 08:57:39;;;;;;;2.03;0.60;;;13.60;99.90;;;;;;4965112;28;20039;-73
2023/03/20 09:00:07;;;;;;;2.25;0.60;;;13.40;99.90;;;;;;4964102;28;20078;-75
2023/03/20 09:02:33;;;;;;;1.60;0.50;;;13.50;99.90;;;;;;4962829;28;20218;-73
2023/03/20 09:04:59;;;;;;;2.05;0.50;;;13.60;99.90;;;;;;4963797;28;20042;-74
2023/03/20 09:07:26;;;;;;;2.63;0.95;;;13.50;99.90;;;;;;4963348;28;20062;-73
2023/03/20 09:09:51;;;;;;;1.95;0.68;;;13.60;99.90;;;;;;4963390;28;20261;-74
2023/03/20 09:12:20;;;;;;;1.40;0.50;;;13.60;99.90;;;;;;4962031;28;20169;-74
2023/03/20 09:14:46;;;;;;;3.35;0.60;;;13.40;99.90;;;;;;4963439;28;20035;-74
2023/03/20 09:17:12;;;;;;;2.55;0.65;;;13.70;99.90;;;;;;4963195;28;20101;-74
2023/03/20 09:19:43;;;;;;;1.55;0.55;;;13.90;99.80;;;;;;4963133;28;20376;-75
2023/03/20 09:22:12;;;;;;;1.70;0.50;;;14.20;99.80;;;;;;4963501;28;20031;-74
2023/03/20 09:24:38;;;;;;;1.88;0.60;;;14.40;99.30;;;;;;4962430;28;20035;-73
2023/03/20 09:27:04;;;;;;;1.50;0.60;;;14.40;98.50;;;;;;4961596;28;20035;-74
2023/03/20 09:29:29;;;;;;;1.13;0.45;;;14.50;98.80;;;;;;4962954;28;20236;-72
2023/03/20 09:31:55;;;;;;;0.80;0.40;;;14.70;98.30;;;;;;4963819;28;20019;-74
2023/03/20 09:34:21;;;;;;;1.83;0.63;;;15.00;97.50;;;;;;4969003;28;20027;-76
2023/03/20 09:36:47;;;;;;;1.55;0.80;;;15.10;97.60;;;;;;4969660;28;20224;-75
2023/03/20 09:39:13;;;;;;;1.33;0.50;;;15.40;96.70;;;;;;4969711;28;20039;-75
2023/03/20 09:41:39;;;;;;;1.80;0.60;;;15.50;96.50;;;;;;4969213;28;20023;-75
2023/03/20 09:44:26;;;;;;;2.75;0.60;;;15.90;95.70;;;;;;4969580;28;20031;-75
2023/03/20 09:47:10;;;;;;;2.30;0.77;;;15.60;95.20;;;;;;4970020;28;20030;-75
2023/03/20 09:49:56;;;;;;;1.88;0.63;;;15.50;95.50;;;;;;4969164;28;20094;-76
2023/03/20 09:52:38;;;;;;;2.08;0.73;;;15.20;95.30;;;;;;4969490;28;20039;-76
2023/03/20 09:55:13;;;;;;;1.48;0.63;;;15.20;95.60;;;;;;4961307;28;20105;-76
2023/03/20 09:57:43;;;;;;;1.52;0.55;;;15.70;95.30;;;;;;4964769;28;20031;-74
2023/03/20 10:00:16;;;;;;;1.70;0.60;;;15.70;95.10;;;;;;4968592;28;20038;-74
2023/03/20 10:02:45;;;;;;;2.30;0.77;;;15.60;95.10;;;;;;4968945;28;20054;-74
2023/03/20 10:05:27;;;;;;;1.60;0.50;;;15.90;94.40;;;;;;4969919;28;20031;-74
2023/03/20 10:08:01;;;;;;;0.98;0.30;;;15.70;93.80;;;;;;4969555;28;20031;-72
2023/03/20 10:10:37;;;;;;;1.90;0.95;;;15.60;94.40;;;;;;4969116;28;20047;-76
2023/03/20 10:13:34;;;;;;;2.15;0.82;;;15.60;93.50;;;;;;4969462;28;20039;-73
2023/03/20 10:15:59;;;;;;;2.10;0.90;;;15.30;94.20;;;;;;4969537;28;20023;-73
2023/03/20 10:18:32;;;;;;;1.70;0.90;;;15.20;94.10;;;;;;4968869;28;20065;-74
2023/03/20 10:21:08;;;;;;;1.80;0.70;;;15.10;93.70;;;;;;4968755;28;20312;-74
2023/03/20 10:23:40;;;;;;;1.83;0.60;;;14.90;94.50;;;;;;4969203;28;20038;-73
2023/03/20 10:26:11;;;;;;;1.77;0.68;;;14.90;94.80;;;;;;4969391;28;20316;-73
2023/03/20 10:28:49;;;;;;;1.55;0.57;;;15.10;94.80;;;;;;4968634;28;20023;-73
2023/03/20 10:31:38;;;;;;;1.73;0.82;;;15.10;94.70;;;;;;4971941;28;20034;-73
2023/03/20 10:34:14;;;;;;;2.00;0.77;;;14.70;94.40;;;;;;4969598;28;20069;-73
2023/03/20 10:37:15;;;;;;;1.60;0.60;;;14.50;95.00;;;;;;4955161;28;20324;-73
2023/03/20 10:40:09;;;;;;;1.70;0.70;;;14.30;94.90;;;;;;4926419;29;20043;-73
2023/03/20 10:42:40;;;;;;;5.80;0.70;;;14.10;95.80;;;;;;4965552;28;20054;-73
2023/03/20 10:45:44;;;;;;;2.30;0.90;;;14.00;96.10;;;;;;4966090;28;20035;-73
2023/03/20 10:48:34;;;;;;;2.40;0.60;;;13.90;96.70;;;;;;4945600;28;20043;-73
2023/03/20 10:51:02;;;;;;;3.47;1.00;;;13.90;97.40;;;;;;4956301;28;20225;-73
2023/03/20 10:53:52;;;;;;;3.80;1.40;;;13.80;98.20;;;;;;4957157;28;20317;-74
2023/03/20 10:56:45;;;;;;;3.10;1.30;;;13.70;98.90;;;;;;4963764;28;20043;-72
2023/03/20 10:59:28;;;;;;;2.58;1.27;;;13.60;98.90;;;;;;4965909;28;20050;-72
2023/03/20 11:01:54;;;;;;;3.33;1.70;;;13.60;99.40;;;;;;4965627;28;20063;-72
2023/03/20 11:04:20;;;;;;;2.88;1.42;;;13.50;99.60;;;;;;4963914;28;20035;-72
2023/03/20 11:07:10;;;;;;;3.00;1.42;;;13.50;99.40;;;;;;4965783;28;20073;-72
2023/03/20 11:09:37;;;;;;;4.03;1.60;;;13.50;99.50;;;;;;4965164;28;20019;-73
2023/03/20 11:12:03;;;;;;;5.57;1.40;;;13.60;98.00;;;;;;4965762;28;20077;-72
2023/03/20 11:14:38;;;;;;;3.55;1.48;;;13.60;98.30;;;;;;4959116;28;20040;-73
2023/03/20 11:17:05;;;;;;;2.95;1.30;;;13.70;98.00;;;;;;4957774;28;20118;-71
2023/03/20 11:19:36;;;;;;;4.22;2.25;;;13.80;97.80;;;;;;4964998;28;20290;-73
2023/03/20 11:22:25;;;;;;;3.85;1.98;;;14.00;98.10;;;;;;4965667;28;20031;-72
2023/03/20 11:24:52;;;;;;;;;;;14.30;98.30;;;;;;4966348;28;20042;-72
2023/03/20 11:27:27;;;;;;;4.13;2.22;;;14.40;98.10;;;;;;4965357;28;19954;-72
2023/03/20 11:29:55;;;;;;;4.40;2.83;;;14.50;97.90;;;;;;4965665;28;20031;-72
2023/03/20 11:32:37;;;;;;;5.03;3.00;;;14.40;98.00;;;;;;4977836;28;20194;-74
2023/03/20 11:35:15;;;;;;;4.72;2.85;;;14.40;98.10;;;;;;4946352;29;20095;-71
2023/03/20 11:37:47;;;;;;;6.78;2.65;;;14.40;97.90;;;;;;4946108;29;20292;-76
2023/03/20 11:40:32;;;;;;;6.05;2.83;;;14.40;97.70;;;;;;4946162;29;20154;-73
2023/03/20 11:43:01;;;;;;;6.07;3.05;;;14.50;97.10;;;;;;4946145;29;20036;-71
2023/03/20 11:45:41;;;;;;;7.00;3.03;;;14.40;97.30;;;;;;4945616;29;20031;-71
2023/03/20 11:48:35;;;;;;;4.00;2.33;;;14.40;96.90;;;;;;4928892;29;20269;-71
2023/03/20 11:51:09;;;;;;;3.33;2.28;;;14.40;96.90;;;;;;4945934;29;20035;-70
2023/03/20 11:53:38;;;;;;;5.78;2.70;;;14.60;96.70;;;;;;4945495;29;20099;-71
2023/03/20 11:56:14;;;;;;;4.47;2.47;;;14.70;96.60;;;;;;4951403;28;20098;-72
2023/03/20 11:59:09;;;;;;;6.28;3.58;;;14.90;97.00;;;;;;4969416;28;20313;-72
2023/03/20 12:01:50;;;;;;;4.35;2.95;;;15.00;96.60;;;;;;4962441;28;20043;-72
2023/03/20 12:04:24;;;;;;;5.85;2.92;;;15.30;96.60;;;;;;4964851;28;20058;-72
2023/03/20 12:06:55;;;;;;;5.00;2.85;;;15.40;96.20;;;;;;4964647;28;20321;-72
2023/03/20 12:09:27;;;;;;;6.43;3.22;;;15.60;95.10;;;;;;4964635;28;20058;-72
2023/03/20 12:12:07;;;;;;;6.65;3.08;;;15.80;94.70;;;;;;4947399;29;20293;-73
2023/03/20 12:14:54;;;;;;;7.32;3.70;;;15.90;93.90;;;;;;4963951;28;20317;-74
2023/03/20 12:17:40;;;;;;;5.53;3.13;;;16.00;94.30;;;;;;4964524;28;20082;-72
2023/03/20 12:20:11;;;;;;;7.55;3.60;;;16.10;94.70;;;;;;4964541;28;20038;-72
2023/03/20 12:22:48;;;;;;;7.22;3.45;;;16.40;94.00;;;;;;4964071;28;20074;-73
2023/03/20 12:25:24;;;;;;;5.05;3.00;;;16.60;93.90;;;;;;4964407;28;20101;-72
2023/03/20 12:28:12;;;;;;;4.75;2.72;;;16.80;92.90;;;;;;4964595;28;20085;-72
2023/03/20 12:30:56;;;;;;;4.07;2.73;;;17.10;92.30;;;;;;4962801;28;20050;-72
2023/03/20 12:33:37;;;;;;;4.45;3.00;;;17.20;91.50;;;;;;4952891;28;20438;-72
2023/03/20 12:36:05;;;;;;;6.03;3.03;;;17.00;91.70;;;;;;4963820;28;20035;-72
2023/03/20 12:38:33;;;;;;;4.80;2.78;;;16.60;91.80;;;;;;4963661;28;20034;-72
2023/03/20 12:41:11;;;;;;;4.80;2.78;;;16.50;91.90;;;;;;4953790;28;20039;-72
2023/03/20 12:44:01;;;;;;;4.97;2.72;;;16.40;92.30;;;;;;4955871;28;20035;-72
2023/03/20 12:46:49;;;;;;;6.50;3.40;;;16.30;92.50;;;;;;4956341;28;20158;-73
2023/03/20 12:49:23;;;;;;;;;;;16.30;92.40;;;;;;4957780;28;20266;-72
2023/03/20 12:52:07;;;;;;;5.13;2.95;;;16.20;92.70;;;;;;4955708;28;20018;-73
2023/03/20 12:54:59;;;;;;;5.95;2.88;;;16.20;92.80;;;;;;4958270;28;20094;-72
2023/03/20 12:57:49;;;;;;;6.55;3.33;;;16.40;92.80;;;;;;4969720;28;20309;-73
2023/03/20 13:00:51;;;;;;;5.47;2.65;;;17.00;91.90;;;;;;4954722;28;20034;-74
2023/03/20 13:03:43;;;;;;;6.63;2.72;;;18.90;91.00;;;;;;4947883;28;20049;-74
2023/03/20 13:06:36;;;;;;;4.47;2.95;;;21.00;85.40;;;;;;4963020;28;20217;-72
2023/03/20 13:09:39;;;;;;;4.65;3.08;;;21.50;79.90;;;;;;4963764;28;20034;-72
2023/03/20 13:12:16;;;;;;;4.80;3.05;;;21.20;80.20;;;;;;4934600;28;20051;-73
2023/03/20 13:14:58;;;;;;;4.82;2.80;;;20.50;80.10;;;;;;4962226;28;20258;-72
2023/03/20 13:17:47;;;;;;;5.40;2.85;;;20.00;81.30;;;;;;4963222;28;20151;-73
2023/03/20 13:20:28;;;;;;;4.90;3.10;;;19.50;82.40;;;;;;4957401;28;20043;-73
2023/03/20 13:23:26;;;;;;;4.25;2.63;;;19.20;83.10;;;;;;4957267;28;20321;-72
2023/03/20 13:26:13;;;;;;;5.35;3.10;;;18.70;83.60;;;;;;4962975;28;20023;-72
2023/03/20 13:29:08;;;;;;;5.50;3.08;;;18.20;84.40;;;;;;4962704;28;20099;-72
2023/03/20 13:32:05;;;;;;;4.57;2.78;;;18.90;84.10;;;;;;4962013;28;20043;-73
2023/03/20 13:35:10;;;;;;;4.40;2.38;;;21.10;79.80;;;;;;4961926;28;20094;-72
2023/03/20 13:37:51;;;;;;;4.30;2.80;;;22.00;75.70;;;;;;4962230;28;20055;-72
2023/03/20 13:40:33;;;;;;;5.95;2.50;;;22.00;74.30;;;;;;4951663;28;20035;-72
2023/03/20 13:43:21;;;;;;;4.43;2.33;;;21.10;75.00;;;;;;4960041;28;20055;-73
2023/03/20 13:45:53;;;;;;;6.47;2.55;;;20.60;76.60;;;;;;4950595;28;20072;-73
2023/03/20 13:48:38;;;;;;;3.90;2.28;;;20.30;76.00;;;;;;4955818;28;20055;-73
2023/03/20 13:51:19;;;;;;;5.07;2.50;;;19.30;78.20;;;;;;4957408;28;20479;-72
2023/03/20 13:54:04;;;;;;;3.10;2.30;;;18.60;80.80;;;;;;4961861;28;20123;-72
2023/03/20 13:57:01;;;;;;;4.07;2.40;;;18.40;81.60;;;;;;4961923;28;20043;-72
2023/03/20 13:59:27;;;;;;;5.15;2.63;;;18.10;84.00;;;;;;4948469;28;20122;-72
2023/03/20 14:02:07;;;;;;;4.07;2.10;;;17.80;82.90;;;;;;4956634;28;20027;-72
2023/03/20 14:04:34;;;;;;;3.80;1.85;;;17.30;83.60;;;;;;4962772;28;20178;-72
2023/03/20 14:07:00;;;;;;;3.22;1.90;;;17.50;85.80;;;;;;4963066;28;20046;-72
2023/03/20 14:09:31;;;;;;;3.88;2.10;;;17.50;86.20;;;;;;4962618;28;20194;-73
2023/03/20 14:12:10;;;;;;;4.13;1.90;;;17.40;84.60;;;;;;4963575;28;20110;-71
2023/03/20 14:14:51;;;;;;;3.72;2.13;;;17.40;86.70;;;;;;4965667;28;20260;-73
2023/03/20 14:17:27;;;;;;;3.75;1.75;;;17.50;85.00;;;;;;4966520;28;20031;-73
2023/03/20 14:19:53;;;;;;;3.60;2.00;;;17.60;85.90;;;;;;4966549;28;20107;-72
2023/03/20 14:22:26;;;;;;;3.95;2.03;;;17.80;84.70;;;;;;4963135;28;20288;-73
2023/03/20 14:24:55;;;;;;;5.18;2.22;;;17.60;84.50;;;;;;4965944;28;20034;-72
2023/03/20 14:27:27;;;;;;;5.20;2.70;;;17.50;85.20;;;;;;4965181;28;20194;-72
2023/03/20 14:29:53;;;;;;;3.95;2.60;;;17.20;84.90;;;;;;4948102;29;20312;-72
2023/03/20 14:32:19;;;;;;;4.60;2.03;;;16.70;85.50;;;;;;4965882;28;20039;-72
2023/03/20 14:34:46;;;;;;;3.30;1.90;;;16.40;87.10;;;;;;4965577;28;20063;-73
2023/03/20 14:37:56;;;;;;;4.45;1.92;;;16.50;88.90;;;;;;4965666;28;20076;-73
2023/03/20 14:40:27;;;;;;;4.45;1.70;;;16.40;88.40;;;;;;4925549;29;20306;-73
2023/03/20 14:43:17;;;;;;;5.05;2.40;;;16.10;88.00;;;;;;4925898;29;20254;-74
2023/03/20 14:46:05;;;;;;;5.35;2.33;;;16.00;87.90;;;;;;4953804;28;20102;-74
2023/03/20 14:48:40;;;;;;;3.42;1.60;;;16.10;90.00;;;;;;4965162;28;20372;-73
2023/03/20 14:51:28;;;;;;;3.25;2.00;;;16.10;89.50;;;;;;4965608;28;20062;-74
2023/03/20 14:54:20;;;;;;;3.90;2.05;;;16.00;89.40;;;;;;4965555;28;20094;-74
2023/03/20 14:56:47;;;;;;;4.47;2.10;;;16.00;89.80;;;;;;4964587;28;20114;-72
2023/03/20 14:59:15;;;;;;;3.53;1.65;;;16.10;89.90;;;;;;4963923;28;20103;-73
2023/03/20 15:01:45;;;;;;;4.38;2.17;;;16.00;90.20;;;;;;4964538;28;20035;-73
2023/03/20 15:04:39;;;;;;;2.97;1.88;;;16.00;88.80;;;;;;4965503;28;20038;-72
2023/03/20 15:07:23;;;;;;;3.35;1.80;;;16.10;89.80;;;;;;4965571;28;20033;-72
2023/03/20 15:09:52;;;;;;;4.22;1.95;;;16.10;90.20;;;;;;4965270;28;20098;-73
2023/03/20 15:12:27;;;;;;;2.92;1.88;;;16.00;89.10;;;;;;4965496;28;20049;-74
2023/03/20 15:15:05;;;;;;;4.15;1.90;;;16.00;88.90;;;;;;4965580;28;20023;-73
2023/03/20 15:17:46;;;;;;;3.67;2.03;;;15.80;89.80;;;;;;4965212;28;20046;-73
2023/03/20 15:20:16;;;;;;;3.97;2.00;;;15.90;90.10;;;;;;4965452;28;20205;-74
2023/03/20 15:22:57;;;;;;;6.07;2.40;;;15.90;89.10;;;;;;4964514;28;20198;-74
2023/03/20 15:25:31;;;;;;;4.18;2.20;;;15.90;90.40;;;;;;4964605;28;20039;-74
2023/03/20 15:27:57;;;;;;;4.78;2.40;;;15.90;89.40;;;;;;4965923;28;20046;-74
2023/03/20 15:30:23;;;;;;;4.10;2.42;;;16.00;89.30;;;;;;4964888;28;20031;-74
2023/03/20 15:32:52;;;;;;;3.80;2.35;;;15.90;89.50;;;;;;4964977;28;20201;-74
2023/03/20 15:35:22;;;;;;;4.30;1.90;;;16.00;89.80;;;;;;4965265;28;20035;-74
2023/03/20 15:37:50;;;;;;;4.53;1.90;;;15.90;89.00;;;;;;4964451;28;20098;-73
2023/03/20 15:40:29;;;;;;;4.25;2.22;;;16.00;89.50;;;;;;4965152;28;20039;-74
2023/03/20 15:42:58;;;;;;;3.60;2.00;;;15.90;90.50;;;;;;4963987;28;20229;-74
2023/03/20 15:45:27;;;;;;;5.20;2.20;;;15.90;89.30;;;;;;4965160;28;20035;-74
2023/03/20 15:48:21;;;;;;;4.70;1.95;;;15.70;89.70;;;;;;4963420;28;20337;-71
2023/03/20 15:50:59;;;;;;;5.60;1.80;;;15.70;91.00;;;;;;4946210;29;20031;-73
2023/03/20 15:53:32;;;;;;;4.85;1.90;;;15.70;90.90;;;;;;4965032;28;20094;-73
2023/03/20 15:56:04;;;;;;;4.32;2.03;;;15.60;90.20;;;;;;4964801;28;20054;-74
2023/03/20 15:58:31;;;;;;;4.45;2.00;;;15.40;90.10;;;;;;4964036;28;20336;-74
2023/03/20 16:00:59;;;;;;;2.88;1.67;;;15.50;91.40;;;;;;4964597;28;20059;-73
2023/03/20 16:03:27;;;;;;;3.75;1.80;;;15.50;90.80;;;;;;4964428;28;20071;-73
2023/03/20 16:05:53;;;;;;;3.63;2.03;;;15.60;90.70;;;;;;4964529;28;20027;-72
2023/03/20 16:08:31;;;;;;;3.15;1.70;;;15.60;90.60;;;;;;4962719;28;20038;-75
2023/03/20 16:11:11;;;;;;;3.20;1.55;;;15.60;90.90;;;;;;4958547;28;20035;-73
2023/03/20 16:13:41;;;;;;;5.78;2.25;;;15.50;90.40;;;;;;4956377;28;20288;-73
2023/03/20 16:16:12;;;;;;;4.53;1.73;;;15.60;90.40;;;;;;4960925;28;20027;-73
2023/03/20 16:18:39;;;;;;;3.10;1.30;;;15.60;90.90;;;;;;4963751;28;20047;-74
2023/03/20 16:21:16;;;;;;;2.60;1.00;;;15.60;87.10;;;;;;4964313;28;20015;-74
2023/03/20 16:23:46;;;;;;;3.10;1.00;;;15.70;86.90;;;;;;4963747;29;20031;-73
2023/03/20 16:26:18;;;;;;;2.55;0.80;;;15.80;85.60;;;;;;4964394;28;20375;-73
2023/03/20 16:28:47;;;;;;;2.65;0.70;;;15.80;85.10;;;;;;4964077;28;20043;-74
2023/03/20 16:31:21;;;;;;;2.33;0.60;;;15.70;85.20;;;;;;4964272;28;20031;-76
2023/03/20 16:33:48;;;;;;;2.97;0.90;;;15.60;85.00;;;;;;4963634;28;20039;-74
2023/03/20 16:36:25;;;;;;;3.05;0.73;;;15.80;84.80;;;;;;4963237;28;20027;-73
2023/03/20 16:39:00;;;;;;;2.03;0.70;;;15.70;84.30;;;;;;4963688;28;20066;-72
2023/03/20 16:41:37;;;;;;;1.75;0.80;;;15.80;84.70;;;;;;4964043;28;20023;-74
2023/03/20 16:44:22;;;;;;;1.58;0.70;;;15.80;84.50;;;;;;4963981;28;20023;-74
2023/03/20 16:46:58;;;;;;;2.17;0.75;;;15.60;84.90;;;;;;4963517;28;20046;-74
2023/03/20 16:49:33;;;;;;;1.77;0.82;;;15.30;85.50;;;;;;4953841;28;20024;-72
2023/03/20 16:52:02;;;;;;;2.47;0.88;;;15.00;86.40;;;;;;4964487;28;20035;-72
2023/03/20 16:54:30;;;;;;;2.78;1.10;;;14.80;87.10;;;;;;4963745;28;20043;-73
2023/03/20 16:56:56;;;;;;;2.85;0.80;;;14.60;86.60;;;;;;4963912;28;20054;-72
2023/03/20 16:59:24;;;;;;;1.83;0.70;;;14.40;87.00;;;;;;4962965;28;20111;-72
2023/03/20 17:01:52;;;;;;;2.15;0.70;;;14.20;87.70;;;;;;4963193;28;20045;-72
2023/03/20 17:04:26;;;;;;;2.17;1.05;;;14.00;87.80;;;;;;4964505;28;20051;-77
2023/03/20 17:06:57;;;;;;;2.33;1.00;;;13.90;88.30;;;;;;4963823;29;20406;-74
2023/03/20 17:09:29;;;;;;;2.25;1.00;;;13.80;88.70;;;;;;4963870;28;20031;-72
2023/03/20 17:12:15;;;;;;;2.00;0.98;;;13.70;88.70;;;;;;4964258;28;20336;-74
2023/03/20 17:14:40;;;;;;;2.03;0.75;;;13.60;88.60;;;;;;4950171;28;20035;-72
2023/03/20 17:17:19;;;;;;;1.70;0.73;;;13.50;88.90;;;;;;4962945;28;20149;-74
2023/03/20 17:19:45;;;;;;;2.47;0.75;;;13.40;89.40;;;;;;4963388;28;20054;-73
2023/03/20 17:22:17;;;;;;;3.47;1.30;;;13.30;89.40;;;;;;4963875;28;20376;-74
2023/03/20 17:24:43;;;;;;;2.25;1.10;;;13.30;89.80;;;;;;4962195;28;20041;-72
2023/03/20 17:27:12;;;;;;;2.28;1.00;;;13.30;89.80;;;;;;4964197;28;20047;-71
2023/03/20 17:29:40;;;;;;;2.35;0.90;;;13.20;90.00;;;;;;4963396;28;20035;-72
2023/03/20 17:32:17;;;;;;;2.47;0.95;;;13.10;90.10;;;;;;4963580;28;20031;-72
2023/03/20 17:34:44;;;;;;;1.67;0.80;;;13.10;90.30;;;;;;4962416;28;20096;-71
2023/03/20 17:37:16;;;;;;;3.60;1.15;;;13.00;90.40;;;;;;4963533;28;20150;-73
2023/03/20 17:39:42;;;;;;;2.05;0.95;;;13.00;90.30;;;;;;4963182;28;20031;-72
2023/03/20 17:42:19;;;;;;;2.17;0.80;;;13.00;90.30;;;;;;4976553;28;20035;-72
2023/03/20 17:44:45;;;;;;;2.15;1.00;;;13.00;90.40;;;;;;4945092;29;20023;-71
2023/03/20 17:47:15;;;;;;;2.63;1.15;;;13.00;90.30;;;;;;4958959;28;20023;-73
2023/03/20 17:49:41;;;;;;;3.10;1.52;;;12.90;90.40;;;;;;4965994;28;20041;-74
2023/03/20 17:52:17;;;;;;;2.90;1.27;;;12.90;90.60;;;;;;4967464;28;20054;-72
2023/03/20 17:54:44;;;;;;;2.78;1.15;;;12.80;90.90;;;;;;4966903;28;20328;-71
2023/03/20 17:57:31;;;;;;;2.50;1.25;;;12.90;90.60;;;;;;4966313;28;20043;-74
2023/03/20 17:59:58;;;;;;;2.80;1.00;;;12.80;90.70;;;;;;4966908;28;20031;-72
2023/03/20 18:02:24;;;;;;;3.00;0.95;;;12.80;91.00;;;;;;4967046;28;20051;-74
2023/03/20 18:04:50;;;;;;;2.45;1.25;;;12.70;91.00;;;;;;4954315;29;20034;-73
2023/03/20 18:07:17;;;;;;;2.17;0.90;;;12.70;91.10;;;;;;4967095;28;20034;-72
2023/03/20 18:09:43;;;;;;;2.70;1.00;;;12.70;91.20;;;;;;4965565;28;20078;-73
2023/03/20 18:12:12;;;;;;;2.05;0.93;;;12.60;91.40;;;;;;4966833;28;20038;-73
2023/03/20 18:14:37;;;;;;;2.17;0.90;;;12.60;91.60;;;;;;4966738;28;20094;-74
2023/03/20 18:17:03;;;;;;;3.67;1.90;;;12.60;91.70;;;;;;4966866;28;20050;-72
2023/03/20 18:19:29;;;;;;;3.22;2.08;;;12.60;93.00;;;;;;4966648;28;20023;-72